createdAt,value
2018-03-07T00:02:10.558Z,74.23
2018-03-07T00:04:39.691Z,73.00
2018-03-07T00:07:08.854Z,73.03
2018-03-07T00:09:38.405Z,73.50
2018-03-07T00:12:07.547Z,74.10
2018-03-07T00:14:36.727Z,74.40
2018-03-07T00:17:05.889Z,65.83
2018-03-07T00:19:35.030Z,70.37
2018-03-07T00:22:04.182Z,71.90
2018-03-07T00:24:33.379Z,67.93
2018-03-07T00:27:02.526Z,67.00
2018-03-07T00:29:31.674Z,72.17
2018-03-07T00:32:00.842Z,66.80
2018-03-07T00:34:29.990Z,63.90
2018-03-07T00:36:59.139Z,67.27
2018-03-07T00:39:28.629Z,67.83
2018-03-07T00:41:57.769Z,69.70
2018-03-07T00:44:26.921Z,62.00
2018-03-07T00:46:56.101Z,63.73
2018-03-07T00:49:25.273Z,61.43
2018-03-07T00:51:54.459Z,64.03
2018-03-07T00:54:23.597Z,66.40
2018-03-07T00:56:52.776Z,63.20
2018-03-07T00:59:21.912Z,64.67
2018-03-07T01:01:51.054Z,66.30
2018-03-07T01:04:20.227Z,62.30
2018-03-07T01:06:49.362Z,63.50
2018-03-07T01:09:18.498Z,61.37
2018-03-07T01:11:48.091Z,62.47
2018-03-07T01:14:17.232Z,59.83
2018-03-07T01:16:46.370Z,58.50
2018-03-07T01:19:15.537Z,58.07
2018-03-07T01:21:44.690Z,59.00
2018-03-07T01:24:13.833Z,62.07
2018-03-07T01:26:42.993Z,61.90
2018-03-07T01:29:12.138Z,65.63
2018-03-07T01:31:41.283Z,60.67
2018-03-07T01:34:10.472Z,61.97
2018-03-07T01:36:39.613Z,64.30
2018-03-07T01:39:08.754Z,65.17
2018-03-07T01:41:38.253Z,65.23
2018-03-07T01:44:07.474Z,63.57
2018-03-07T01:46:36.638Z,64.93
2018-03-07T01:49:05.809Z,68.40
2018-03-07T01:51:40.839Z,69.07
2018-03-07T01:54:10.013Z,64.83
2018-03-07T01:56:39.170Z,65.27
2018-03-07T01:59:08.361Z,67.53
2018-03-07T02:01:37.502Z,63.93
2018-03-07T02:04:06.633Z,64.40
2018-03-07T02:06:35.830Z,70.03
2018-03-07T02:09:04.970Z,63.83
2018-03-07T02:11:34.119Z,69.03
2018-03-07T02:14:03.302Z,69.87
2018-03-07T02:16:32.469Z,69.57
2018-03-07T02:19:01.606Z,68.90
2018-03-07T02:21:30.753Z,68.87
2018-03-07T02:23:59.989Z,64.43
2018-03-07T02:26:29.137Z,69.63
2018-03-07T02:28:58.273Z,62.57
2018-03-07T02:31:27.445Z,66.40
2018-03-07T02:33:56.613Z,67.17
2018-03-07T02:36:30.630Z,65.03
2018-03-07T02:38:59.790Z,64.33
2018-03-07T02:41:28.938Z,63.60
2018-03-07T02:43:58.078Z,66.83
2018-03-07T02:46:27.336Z,67.70
2018-03-07T02:48:56.493Z,69.87
2018-03-07T02:51:25.647Z,68.07
2018-03-07T02:53:54.902Z,68.97
2018-03-07T02:56:23.961Z,67.40
2018-03-07T02:58:53.110Z,64.67
2018-03-07T03:01:22.287Z,64.83
2018-03-07T03:03:51.433Z,68.73
2018-03-07T03:06:20.572Z,62.50
2018-03-07T03:08:49.733Z,64.87
2018-03-07T03:11:19.697Z,63.13
2018-03-07T03:13:48.842Z,64.60
2018-03-07T03:16:18.005Z,70.77
2018-03-07T03:18:47.167Z,67.90
2018-03-07T03:21:16.298Z,72.23
2018-03-07T03:23:45.458Z,78.60
2018-03-07T03:26:14.600Z,73.13
2018-03-07T03:28:43.898Z,72.90
2018-03-07T03:31:13.065Z,71.67
2018-03-07T03:33:42.198Z,68.40
2018-03-07T03:36:11.341Z,75.77
2018-03-07T03:38:40.515Z,75.63
2018-03-07T03:41:09.653Z,80.17
2018-03-07T03:43:38.786Z,80.83
2018-03-07T03:46:07.954Z,82.63
2018-03-07T03:48:37.091Z,79.00
2018-03-07T03:51:06.234Z,77.37
2018-03-07T03:53:35.486Z,72.17
2018-03-07T03:56:04.625Z,72.87
2018-03-07T03:58:33.778Z,74.93
2018-03-07T04:01:02.942Z,74.50
2018-03-07T04:03:32.081Z,72.00
2018-03-07T04:06:01.220Z,73.37
2018-03-07T04:08:30.390Z,76.10
2018-03-07T04:10:59.541Z,80.17
2018-03-07T04:13:28.682Z,76.50
2018-03-07T04:15:57.856Z,76.43
2018-03-07T04:18:27.025Z,71.67
2018-03-07T04:20:56.159Z,72.37
2018-03-07T04:23:25.323Z,68.70
2018-03-07T04:25:54.490Z,69.27
2018-03-07T04:28:23.637Z,71.07
2018-03-07T04:30:52.809Z,71.07
2018-03-07T04:33:21.958Z,71.07
2018-03-07T04:35:51.105Z,71.97
2018-03-07T04:38:20.271Z,77.63
2018-03-07T04:40:49.460Z,85.07
2018-03-07T04:43:18.603Z,77.77
2018-03-07T04:45:47.741Z,72.27
2018-03-07T04:48:16.910Z,75.70
2018-03-07T04:50:46.069Z,75.10
2018-03-07T04:53:15.208Z,71.23
2018-03-07T04:55:44.349Z,68.10
2018-03-07T04:58:13.529Z,68.53
2018-03-07T05:00:42.657Z,71.27
2018-03-07T05:03:11.804Z,67.70
2018-03-07T05:05:40.946Z,68.37
2018-03-07T05:08:10.098Z,70.50
2018-03-07T05:10:39.276Z,70.60
2018-03-07T05:13:08.447Z,71.23
2018-03-07T05:15:37.578Z,72.40
2018-03-07T05:18:06.750Z,72.43
2018-03-07T05:20:35.938Z,72.47
2018-03-07T05:23:05.076Z,70.20
2018-03-07T05:25:34.232Z,67.97
2018-03-07T05:28:03.401Z,65.03
2018-03-07T05:30:32.555Z,67.47
2018-03-07T05:33:01.711Z,68.83
2018-03-07T05:35:30.898Z,64.70
2018-03-07T05:38:00.080Z,64.37
2018-03-07T05:40:29.235Z,61.87
2018-03-07T05:42:58.392Z,61.00
2018-03-07T05:45:27.579Z,60.80
2018-03-07T05:47:56.726Z,62.97
2018-03-07T05:50:25.901Z,61.10
2018-03-07T05:52:55.081Z,61.43
2018-03-07T05:55:24.512Z,62.33
2018-03-07T05:57:53.678Z,63.90
2018-03-07T06:00:22.830Z,58.17
2018-03-07T06:02:51.961Z,62.37
2018-03-07T06:05:21.156Z,64.80
2018-03-07T06:07:50.302Z,61.03
2018-03-07T06:10:19.914Z,64.40
2018-03-07T06:12:49.083Z,65.03
2018-03-07T06:15:18.230Z,62.50
2018-03-07T06:17:47.365Z,62.87
2018-03-07T06:20:16.547Z,60.30
2018-03-07T06:22:45.692Z,56.17
2018-03-07T06:25:14.867Z,57.47
2018-03-07T06:27:44.015Z,58.23
2018-03-07T06:30:13.150Z,55.97
2018-03-07T06:32:42.305Z,54.47
2018-03-07T06:35:11.472Z,54.77
2018-03-07T06:37:40.645Z,52.17
2018-03-07T06:40:09.783Z,52.50
2018-03-07T06:42:38.925Z,51.73
2018-03-07T06:45:08.109Z,48.33
2018-03-07T06:47:37.236Z,48.83
2018-03-07T06:50:06.397Z,46.73
2018-03-07T06:52:35.578Z,48.10
2018-03-07T06:55:04.722Z,50.00
2018-03-07T06:57:33.865Z,47.40
2018-03-07T07:00:03.029Z,47.03
2018-03-07T07:02:32.197Z,46.17
2018-03-07T07:05:01.338Z,41.40
2018-03-07T07:07:30.493Z,40.50
2018-03-07T07:09:59.666Z,40.13
2018-03-07T07:12:28.844Z,42.80
2018-03-07T07:14:57.990Z,45.53
2018-03-07T07:17:27.166Z,42.20
2018-03-07T07:19:56.306Z,42.40
2018-03-07T07:22:25.491Z,43.27
2018-03-07T07:24:54.641Z,40.70
2018-03-07T07:27:23.796Z,44.30
2018-03-07T07:29:52.987Z,45.20
2018-03-07T07:32:22.130Z,45.00
2018-03-07T07:34:51.510Z,47.27
2018-03-07T07:37:20.733Z,49.10
2018-03-07T07:39:49.837Z,50.50
2018-03-07T07:42:18.997Z,53.53
2018-03-07T07:44:48.137Z,50.07
2018-03-07T07:47:17.319Z,52.13
2018-03-07T07:49:46.461Z,48.30
2018-03-07T07:52:15.607Z,49.83
2018-03-07T07:54:44.752Z,48.23
2018-03-07T07:57:14.283Z,47.10
2018-03-07T07:59:43.421Z,44.50
2018-03-07T08:02:12.565Z,42.73
2018-03-07T08:04:41.762Z,41.90
2018-03-07T08:07:10.914Z,43.87
2018-03-07T08:09:40.054Z,39.90
2018-03-07T08:12:09.254Z,39.37
2018-03-07T08:14:38.441Z,37.50
2018-03-07T08:17:07.586Z,34.40
2018-03-07T08:19:36.734Z,41.30
2018-03-07T08:22:05.893Z,44.10
2018-03-07T08:24:35.041Z,46.13
2018-03-07T08:27:04.262Z,43.90
2018-03-07T08:29:33.400Z,42.17
2018-03-07T08:32:02.587Z,41.00
2018-03-07T08:34:31.721Z,41.80
2018-03-07T08:37:00.901Z,33.80
2018-03-07T08:39:30.075Z,31.73
2018-03-07T08:41:59.217Z,35.03
2018-03-07T08:44:28.358Z,31.00
2018-03-07T08:46:57.535Z,32.07
2018-03-07T08:49:26.683Z,29.47
2018-03-07T08:51:55.836Z,31.00
2018-03-07T08:54:25.005Z,29.50
2018-03-07T08:56:54.145Z,25.90
2018-03-07T08:59:24.552Z,26.70
2018-03-07T09:01:53.714Z,24.57
2018-03-07T09:04:22.862Z,25.13
2018-03-07T09:06:52.007Z,25.93
2018-03-07T09:09:21.198Z,25.90
2018-03-07T09:11:50.331Z,24.90
2018-03-07T09:14:19.478Z,25.43
2018-03-07T09:16:48.666Z,24.67
2018-03-07T09:19:17.914Z,25.13
2018-03-07T09:21:47.059Z,24.60
2018-03-07T09:24:16.207Z,24.70
2018-03-07T09:26:45.374Z,25.10
2018-03-07T09:29:14.510Z,19.77
2018-03-07T09:31:43.675Z,22.00
2018-03-07T09:34:12.837Z,20.70
2018-03-07T09:36:41.973Z,19.10
2018-03-07T09:39:11.120Z,19.37
2018-03-07T09:41:40.285Z,19.87
2018-03-07T09:44:09.429Z,19.90
2018-03-07T09:46:38.567Z,20.03
2018-03-07T09:49:07.765Z,21.13
2018-03-07T09:51:37.500Z,22.53
2018-03-07T09:54:06.678Z,22.00
2018-03-07T09:56:35.919Z,21.73
2018-03-07T09:59:05.031Z,20.53
2018-03-07T10:01:34.204Z,22.93
2018-03-07T10:04:03.348Z,21.10
2018-03-07T10:06:32.526Z,23.90
2018-03-07T10:09:01.670Z,20.00
2018-03-07T10:11:30.835Z,20.70
2018-03-07T10:13:59.986Z,20.30
2018-03-07T10:16:29.140Z,18.90
2018-03-07T10:18:58.345Z,20.40
2018-03-07T10:21:27.483Z,20.87
2018-03-07T10:23:57.921Z,21.70
2018-03-07T10:26:27.057Z,22.50
2018-03-07T10:28:56.194Z,22.87
2018-03-07T10:31:25.368Z,26.00
2018-03-07T10:33:54.566Z,23.67
2018-03-07T10:36:23.702Z,27.43
2018-03-07T10:38:52.865Z,22.93
2018-03-07T10:41:22.002Z,30.73
2018-03-07T10:43:51.157Z,29.23
2018-03-07T10:46:20.327Z,24.20
2018-03-07T10:48:49.474Z,23.60
2018-03-07T10:51:18.626Z,22.50
2018-03-07T10:53:47.821Z,23.20
2018-03-07T10:56:16.999Z,85.13
2018-03-07T10:58:46.142Z,19.27
2018-03-07T11:01:15.275Z,20.03
2018-03-07T11:03:44.622Z,17.40
2018-03-07T11:06:13.770Z,16.60
2018-03-07T11:08:42.917Z,16.40
2018-03-07T11:11:12.102Z,19.23
2018-03-07T11:13:41.240Z,14.53
2018-03-07T11:16:10.387Z,18.30
2018-03-07T11:18:39.550Z,16.50
2018-03-07T11:21:08.699Z,17.57
2018-03-07T11:23:37.842Z,23.87
2018-03-07T11:26:07.017Z,34.10
2018-03-07T11:28:36.222Z,24.67
2018-03-07T11:31:05.346Z,23.10
2018-03-07T11:33:34.546Z,22.10
2018-03-07T11:36:03.694Z,22.30
2018-03-07T11:38:32.835Z,23.03
2018-03-07T11:41:01.996Z,20.37
2018-03-07T11:43:31.137Z,21.77
2018-03-07T11:46:00.303Z,19.50
2018-03-07T11:48:29.447Z,22.13
2018-03-07T11:50:58.610Z,24.03
2018-03-07T11:53:27.758Z,23.70
2018-03-07T11:55:56.909Z,23.37
2018-03-07T11:58:26.094Z,25.27
2018-03-07T12:00:55.283Z,25.67
2018-03-07T12:03:24.419Z,25.53
2018-03-07T12:05:53.595Z,23.87
2018-03-07T12:08:22.766Z,25.87
2018-03-07T12:10:51.942Z,23.40
2018-03-07T12:13:21.646Z,23.20
2018-03-07T12:15:50.793Z,22.40
2018-03-07T12:18:19.977Z,25.10
2018-03-07T12:20:49.126Z,24.73
2018-03-07T12:23:18.278Z,24.70
2018-03-07T12:25:47.682Z,25.67
2018-03-07T12:28:16.823Z,30.23
2018-03-07T12:30:45.961Z,31.27
2018-03-07T12:33:15.174Z,26.97
2018-03-07T12:35:44.310Z,28.43
2018-03-07T12:38:13.526Z,25.07
2018-03-07T12:40:42.675Z,25.17
2018-03-07T12:43:11.826Z,25.17
2018-03-07T12:45:41.011Z,24.63
2018-03-07T12:48:10.235Z,24.60
2018-03-07T12:50:39.367Z,25.10
2018-03-07T12:53:08.534Z,25.50
2018-03-07T12:55:37.705Z,25.07
2018-03-07T12:58:06.918Z,24.67
2018-03-07T13:00:36.069Z,23.40
2018-03-07T13:03:05.229Z,26.00
2018-03-07T13:05:34.396Z,22.60
2018-03-07T13:08:04.266Z,21.77
2018-03-07T13:10:33.425Z,21.50
2018-03-07T13:13:02.629Z,21.17
2018-03-07T13:15:31.800Z,21.33
2018-03-07T13:18:00.950Z,36.43
2018-03-07T13:20:30.260Z,21.07
2018-03-07T13:22:59.455Z,23.23
2018-03-07T13:25:28.606Z,28.10
2018-03-07T13:27:58.212Z,45.17
2018-03-07T13:30:27.405Z,33.30
2018-03-07T13:32:56.543Z,28.27
2018-03-07T13:35:25.684Z,24.13
2018-03-07T13:37:54.863Z,25.37
2018-03-07T13:40:24.010Z,25.20
2018-03-07T13:42:53.174Z,25.03
2018-03-07T13:45:22.317Z,26.20
2018-03-07T13:47:51.483Z,23.80
2018-03-07T13:50:20.616Z,25.10
2018-03-07T13:52:49.752Z,24.63
2018-03-07T13:55:18.897Z,24.90
2018-03-07T13:57:48.050Z,25.57
2018-03-07T14:00:17.213Z,27.03
2018-03-07T14:02:46.373Z,25.17
2018-03-07T14:05:15.562Z,23.20
2018-03-07T14:07:44.702Z,23.33
2018-03-07T14:10:13.885Z,27.30
2018-03-07T14:12:43.083Z,23.90
2018-03-07T14:15:12.247Z,22.67
2018-03-07T14:17:41.398Z,23.93
2018-03-07T14:20:10.576Z,27.13
2018-03-07T14:22:39.746Z,42.20
2018-03-07T14:25:08.878Z,26.43
2018-03-07T14:27:38.039Z,25.53
2018-03-07T14:30:07.327Z,24.40
2018-03-07T14:32:36.543Z,53.73
2018-03-07T14:35:05.740Z,40.50
2018-03-07T14:37:35.082Z,29.43
2018-03-07T14:40:04.235Z,26.47
2018-03-07T14:42:33.494Z,26.47
2018-03-07T14:45:02.603Z,26.60
2018-03-07T14:47:31.734Z,29.17
2018-03-07T14:50:01.006Z,25.90
2018-03-07T14:52:30.166Z,25.90
2018-03-07T14:54:59.307Z,29.33
2018-03-07T14:57:28.528Z,26.90
2018-03-07T14:59:57.665Z,30.77
2018-03-07T15:02:26.805Z,26.67
2018-03-07T15:04:55.969Z,29.90
2018-03-07T15:07:25.129Z,27.17
2018-03-07T15:09:54.318Z,28.17
2018-03-07T15:12:23.493Z,26.37
2018-03-07T15:14:52.637Z,31.83
2018-03-07T15:17:21.790Z,26.93
2018-03-07T15:19:50.982Z,30.03
2018-03-07T15:22:20.130Z,25.70
2018-03-07T15:24:49.272Z,25.87
2018-03-07T15:27:18.438Z,28.07
2018-03-07T15:29:47.614Z,24.33
2018-03-07T15:32:16.795Z,26.40
2018-03-07T15:34:45.928Z,25.63
2018-03-07T15:40:02.158Z,24.37
2018-03-07T15:42:31.327Z,26.70
2018-03-07T15:45:00.516Z,26.10
2018-03-07T15:47:29.662Z,25.30
2018-03-07T15:49:59.811Z,25.37
2018-03-07T15:52:29.011Z,26.60
2018-03-07T15:54:58.226Z,26.70
2018-03-07T15:57:27.363Z,26.47
2018-03-07T15:59:56.532Z,27.13
2018-03-07T16:02:25.691Z,26.90
2018-03-07T16:04:54.833Z,27.20
2018-03-07T16:07:23.974Z,28.20
2018-03-07T16:09:53.122Z,28.60
2018-03-07T16:12:22.301Z,27.50
2018-03-07T16:14:51.470Z,26.57
2018-03-07T16:17:20.610Z,27.30
2018-03-07T16:19:49.752Z,27.13
2018-03-07T16:22:18.934Z,29.67
2018-03-07T16:24:48.082Z,27.33
2018-03-07T16:27:17.239Z,28.70
2018-03-07T16:29:46.426Z,28.87
2018-03-07T16:32:15.568Z,28.77
2018-03-07T16:34:44.734Z,28.20
2018-03-07T16:37:13.903Z,30.00
2018-03-07T16:39:43.050Z,28.77
2018-03-07T16:42:12.182Z,29.33
2018-03-07T16:44:41.412Z,29.37
2018-03-07T16:47:10.523Z,29.77
2018-03-07T16:49:39.715Z,29.20
2018-03-07T16:52:08.898Z,30.03
2018-03-07T16:54:38.045Z,30.03
2018-03-07T16:57:07.218Z,29.90
2018-03-07T16:59:36.359Z,29.13
2018-03-07T17:02:05.509Z,28.70
2018-03-07T17:04:34.675Z,31.00
2018-03-07T17:07:03.819Z,31.63
2018-03-07T17:09:33.006Z,30.47
2018-03-07T17:12:02.163Z,30.00
2018-03-07T17:14:31.295Z,30.03
2018-03-07T17:17:00.459Z,32.13
2018-03-07T17:19:29.603Z,33.73
2018-03-07T17:21:58.739Z,34.00
2018-03-07T17:24:27.925Z,32.93
2018-03-07T17:26:57.076Z,32.83
2018-03-07T17:29:26.206Z,32.90
2018-03-07T17:31:55.378Z,33.70
2018-03-07T17:34:24.526Z,34.40
2018-03-07T17:36:53.661Z,33.73
2018-03-07T17:39:22.842Z,33.77
2018-03-07T17:41:52.000Z,33.80
2018-03-07T17:44:21.158Z,34.23
2018-03-07T17:46:50.329Z,32.57
2018-03-07T17:49:19.476Z,33.47
2018-03-07T17:51:48.629Z,34.10
2018-03-07T17:54:17.811Z,33.20
2018-03-07T17:56:46.991Z,33.87
2018-03-07T17:59:16.143Z,35.10
2018-03-07T18:01:45.291Z,33.80
2018-03-07T18:04:14.494Z,33.70
2018-03-07T18:06:43.622Z,33.57
2018-03-07T18:09:12.873Z,34.40
2018-03-07T18:11:42.044Z,34.07
2018-03-07T18:14:11.212Z,34.40
2018-03-07T18:16:40.354Z,34.87
2018-03-07T18:19:09.496Z,32.70
2018-03-07T18:21:38.681Z,33.60
2018-03-07T18:24:07.810Z,35.53
2018-03-07T18:26:36.992Z,35.10
2018-03-07T18:29:06.145Z,43.50
2018-03-07T18:31:35.314Z,40.23
2018-03-07T18:34:04.458Z,39.57
2018-03-07T18:36:33.630Z,40.30
2018-03-07T18:39:02.787Z,38.97
2018-03-07T18:41:31.960Z,32.63
2018-03-07T18:44:01.139Z,34.10
2018-03-07T18:46:30.291Z,34.07
2018-03-07T18:48:59.427Z,34.90
2018-03-07T18:51:28.579Z,37.93
2018-03-07T18:53:57.840Z,55.80
2018-03-07T18:56:26.977Z,34.00
2018-03-07T18:58:56.108Z,35.77
2018-03-07T19:01:25.295Z,34.40
2018-03-07T19:03:54.468Z,33.10
2018-03-07T19:06:23.626Z,34.73
2018-03-07T19:08:52.763Z,34.20
2018-03-07T19:11:22.478Z,33.80
2018-03-07T19:13:51.638Z,37.70
2018-03-07T19:16:20.790Z,35.03
2018-03-07T19:18:49.966Z,34.30
2018-03-07T19:21:19.106Z,34.00
2018-03-07T19:23:48.247Z,34.20
2018-03-07T19:26:17.429Z,34.83
2018-03-07T19:28:46.568Z,35.90
2018-03-07T19:31:15.762Z,37.17
2018-03-07T19:33:44.912Z,35.87
2018-03-07T19:36:14.047Z,36.83
2018-03-07T19:38:43.258Z,38.70
2018-03-07T19:41:12.411Z,38.83
2018-03-07T19:43:41.550Z,40.47
2018-03-07T19:46:10.764Z,41.13
2018-03-07T19:48:39.942Z,42.00
2018-03-07T19:51:09.093Z,45.97
2018-03-07T19:53:38.241Z,49.30
2018-03-07T19:56:07.426Z,53.40
2018-03-07T19:58:36.568Z,86.77
2018-03-07T20:01:05.725Z,56.77
2018-03-07T20:03:34.913Z,52.30
2018-03-07T20:06:04.091Z,52.37
2018-03-07T20:08:33.245Z,54.30
2018-03-07T20:11:02.426Z,51.97
2018-03-07T20:13:31.561Z,51.10
2018-03-07T20:16:00.881Z,54.63
2018-03-07T20:18:30.027Z,49.87
2018-03-07T20:20:59.181Z,61.23
2018-03-07T20:23:28.365Z,73.87
2018-03-07T20:25:57.526Z,67.10
2018-03-07T20:28:26.682Z,55.70
2018-03-07T20:30:55.881Z,52.10
2018-03-07T20:33:25.026Z,50.87
2018-03-07T20:35:54.188Z,52.57
2018-03-07T20:38:23.337Z,55.10
2018-03-07T20:40:52.553Z,50.97
2018-03-07T20:43:21.691Z,47.57
2018-03-07T20:45:50.874Z,46.10
2018-03-07T20:48:20.044Z,50.90
2018-03-07T20:50:49.198Z,46.60
2018-03-07T20:53:18.370Z,49.20
2018-03-07T20:55:47.510Z,45.47
2018-03-07T20:58:16.742Z,54.70
2018-03-07T21:00:45.966Z,53.80
2018-03-07T21:03:15.123Z,51.97
2018-03-07T21:05:44.270Z,56.53
2018-03-07T21:08:13.453Z,58.60
2018-03-07T21:10:42.604Z,56.80
2018-03-07T21:13:11.745Z,55.77
2018-03-07T21:15:40.913Z,55.63
2018-03-07T21:18:10.072Z,53.70
2018-03-07T21:20:39.223Z,50.40
2018-03-07T21:23:08.411Z,48.37
2018-03-07T21:25:37.554Z,50.00
2018-03-07T21:28:06.849Z,49.57
2018-03-07T21:30:35.987Z,49.77
2018-03-07T21:33:05.141Z,49.03
2018-03-07T21:35:34.329Z,49.50
2018-03-07T21:38:03.530Z,53.27
2018-03-07T21:40:32.715Z,52.50
2018-03-07T21:43:01.854Z,61.23
2018-03-07T21:45:31.077Z,60.80
2018-03-07T21:48:00.218Z,53.93
2018-03-07T21:50:29.387Z,52.97
2018-03-07T21:52:58.565Z,53.50
2018-03-07T21:55:27.720Z,52.53
2018-03-07T21:57:57.777Z,55.13
2018-03-07T22:00:27.018Z,55.00
2018-03-07T22:02:56.175Z,54.00
2018-03-07T22:05:25.353Z,55.63
2018-03-07T22:07:54.512Z,55.00
2018-03-07T22:10:23.699Z,56.60
2018-03-07T22:12:52.841Z,56.93
2018-03-07T22:15:21.977Z,56.90
2018-03-07T22:17:51.267Z,64.03
2018-03-07T22:20:20.411Z,63.37
2018-03-07T22:22:49.558Z,62.50
2018-03-07T22:25:18.743Z,64.70
2018-03-07T22:27:47.914Z,68.20
2018-03-07T22:30:17.066Z,67.23
2018-03-07T22:32:46.212Z,70.00
2018-03-07T22:35:15.389Z,72.50
2018-03-07T22:37:44.581Z,74.40
2018-03-07T22:40:13.763Z,77.90
2018-03-07T22:42:42.914Z,87.73
2018-03-07T22:45:12.100Z,85.63
2018-03-07T22:47:41.245Z,81.17
2018-03-07T22:50:10.392Z,90.63
2018-03-07T22:52:39.581Z,84.80
2018-03-07T22:55:08.750Z,86.43
2018-03-07T22:57:37.891Z,83.50
2018-03-07T23:00:21.965Z,83.20
2018-03-07T23:02:51.114Z,82.70
2018-03-07T23:05:20.258Z,78.80
2018-03-07T23:07:49.505Z,79.40
2018-03-07T23:10:18.643Z,77.53
2018-03-07T23:12:47.803Z,79.10
2018-03-07T23:15:16.997Z,82.13
2018-03-07T23:17:46.166Z,78.40
2018-03-07T23:20:15.449Z,79.77
2018-03-07T23:22:44.609Z,75.43
2018-03-07T23:25:14.449Z,74.10
2018-03-07T23:27:50.433Z,74.43
2018-03-07T23:30:19.579Z,72.43
2018-03-07T23:32:48.718Z,73.30
2018-03-07T23:35:18.256Z,74.77
2018-03-07T23:37:47.418Z,74.10
2018-03-07T23:40:16.569Z,73.70
2018-03-07T23:42:45.830Z,72.20
2018-03-07T23:45:15.014Z,71.93
2018-03-07T23:47:44.165Z,71.33
2018-03-07T23:50:13.444Z,71.30
2018-03-07T23:52:42.586Z,72.07
2018-03-07T23:55:11.802Z,72.70
2018-03-07T23:57:40.954Z,75.50
